sensor_id;sensor_type;location;lat;lon;timestamp;pressure;altitude;pressure_sealevel;temperature;humidity
13080;BME280;6606;49.154;9.280;2023-02-11T00:02:32;101782.22;;;-2.25;100.00
13080;BME280;6606;49.154;9.280;2023-02-11T00:05:13;101779.47;;;-2.28;100.00
13080;BME280;6606;49.154;9.280;2023-02-11T00:07:55;101773.38;;;-2.30;100.00
13080;BME280;6606;49.154;9.280;2023-02-11T00:10:38;101774.44;;;-2.25;100.00
13080;BME280;6606;49.154;9.280;2023-02-11T00:13:21;101770.53;;;-2.36;100.00
13080;BME280;6606;49.154;9.280;2023-02-11T00:16:05;101765.59;;;-2.30;100.00
13080;BME280;6606;49.154;9.280;2023-02-11T00:18:47;101765.69;;;-2.27;100.00
13080;BME280;6606;49.154;9.280;2023-02-11T00:21:29;101768.22;;;-2.28;100.00
13080;BME280;6606;49.154;9.280;2023-02-11T00:24:11;101772.53;;;-2.29;100.00
13080;BME280;6606;49.154;9.280;2023-02-11T00:26:54;101774.28;;;-2.28;100.00
13080;BME280;6606;49.154;9.280;2023-02-11T00:29:37;101770.69;;;-2.33;100.00
13080;BME280;6606;49.154;9.280;2023-02-11T00:32:19;101774.19;;;-2.31;100.00
13080;BME280;6606;49.154;9.280;2023-02-11T00:35:00;101777.72;;;-2.29;100.00
13080;BME280;6606;49.154;9.280;2023-02-11T00:37:42;101773.47;;;-2.27;100.00
13080;BME280;6606;49.154;9.280;2023-02-11T00:40:24;101766.50;;;-2.28;100.00
13080;BME280;6606;49.154;9.280;2023-02-11T00:43:07;101761.38;;;-2.26;100.00
13080;BME280;6606;49.154;9.280;2023-02-11T00:45:49;101762.16;;;-2.29;100.00
13080;BME280;6606;49.154;9.280;2023-02-11T00:48:31;101749.22;;;-2.27;100.00
13080;BME280;6606;49.154;9.280;2023-02-11T00:51:14;101738.84;;;-2.27;100.00
13080;BME280;6606;49.154;9.280;2023-02-11T00:53:56;101731.97;;;-2.25;100.00
13080;BME280;6606;49.154;9.280;2023-02-11T00:56:37;101733.59;;;-2.29;100.00
13080;BME280;6606;49.154;9.280;2023-02-11T00:59:21;101731.09;;;-2.26;100.00
13080;BME280;6606;49.154;9.280;2023-02-11T01:02:02;101737.94;;;-2.28;100.00
13080;BME280;6606;49.154;9.280;2023-02-11T01:04:44;101741.38;;;-2.29;100.00
13080;BME280;6606;49.154;9.280;2023-02-11T01:07:26;101735.22;;;-2.31;100.00
13080;BME280;6606;49.154;9.280;2023-02-11T01:10:09;101738.66;;;-2.32;100.00
13080;BME280;6606;49.154;9.280;2023-02-11T01:12:51;101744.13;;;-2.24;100.00
13080;BME280;6606;49.154;9.280;2023-02-11T01:15:34;101748.66;;;-2.18;100.00
13080;BME280;6606;49.154;9.280;2023-02-11T01:18:16;101746.34;;;-2.11;100.00
13080;BME280;6606;49.154;9.280;2023-02-11T01:20:58;101743.06;;;-2.05;100.00
13080;BME280;6606;49.154;9.280;2023-02-11T01:23:39;101737.66;;;-2.11;100.00
13080;BME280;6606;49.154;9.280;2023-02-11T01:26:21;101736.31;;;-2.00;100.00
13080;BME280;6606;49.154;9.280;2023-02-11T01:29:04;101737.38;;;-1.93;100.00
13080;BME280;6606;49.154;9.280;2023-02-11T01:31:47;101743.22;;;-2.01;100.00
13080;BME280;6606;49.154;9.280;2023-02-11T01:34:28;101734.00;;;-1.91;100.00
13080;BME280;6606;49.154;9.280;2023-02-11T01:37:10;101739.44;;;-1.85;100.00
13080;BME280;6606;49.154;9.280;2023-02-11T01:39:52;101744.84;;;-1.79;100.00
13080;BME280;6606;49.154;9.280;2023-02-11T01:42:34;101737.88;;;-1.80;100.00
13080;BME280;6606;49.154;9.280;2023-02-11T01:45:41;101735.72;;;-1.66;100.00
13080;BME280;6606;49.154;9.280;2023-02-11T01:48:28;101737.91;;;-1.52;100.00
13080;BME280;6606;49.154;9.280;2023-02-11T01:51:14;101739.75;;;-1.48;100.00
13080;BME280;6606;49.154;9.280;2023-02-11T01:53:57;101733.44;;;-1.29;100.00
13080;BME280;6606;49.154;9.280;2023-02-11T01:56:58;101731.19;;;-1.17;100.00
13080;BME280;6606;49.154;9.280;2023-02-11T02:00:06;101719.22;;;-1.12;100.00
13080;BME280;6606;49.154;9.280;2023-02-11T02:02:57;101709.28;;;-0.97;100.00
13080;BME280;6606;49.154;9.280;2023-02-11T02:05:45;101692.16;;;-0.89;100.00
13080;BME280;6606;49.154;9.280;2023-02-11T02:08:33;101690.63;;;-0.82;100.00
13080;BME280;6606;49.154;9.280;2023-02-11T02:11:16;101685.94;;;-0.94;100.00
13080;BME280;6606;49.154;9.280;2023-02-11T02:13:58;101683.69;;;-0.81;100.00
13080;BME280;6606;49.154;9.280;2023-02-11T02:16:40;101677.06;;;-0.70;100.00
13080;BME280;6606;49.154;9.280;2023-02-11T02:19:59;101682.13;;;-0.43;100.00
13080;BME280;6606;49.154;9.280;2023-02-11T02:23:02;101668.44;;;-0.36;100.00
13080;BME280;6606;49.154;9.280;2023-02-11T02:26:15;101662.59;;;-0.27;100.00
13080;BME280;6606;49.154;9.280;2023-02-11T02:29:21;101658.44;;;-0.20;100.00
13080;BME280;6606;49.154;9.280;2023-02-11T02:32:36;101659.63;;;-0.08;100.00
13080;BME280;6606;49.154;9.280;2023-02-11T02:35:28;101659.72;;;-0.05;100.00
13080;BME280;6606;49.154;9.280;2023-02-11T02:38:15;101645.97;;;0.03;100.00
13080;BME280;6606;49.154;9.280;2023-02-11T02:41:03;101642.59;;;0.07;100.00
13080;BME280;6606;49.154;9.280;2023-02-11T02:43:48;101637.44;;;0.10;100.00
13080;BME280;6606;49.154;9.280;2023-02-11T02:46:33;101627.81;;;0.06;100.00
13080;BME280;6606;49.154;9.280;2023-02-11T02:49:16;101630.31;;;0.03;100.00
13080;BME280;6606;49.154;9.280;2023-02-11T02:52:12;101628.69;;;0.08;100.00
13080;BME280;6606;49.154;9.280;2023-02-11T02:55:07;101628.94;;;0.17;100.00
13080;BME280;6606;49.154;9.280;2023-02-11T02:58:06;101625.34;;;0.12;100.00
13080;BME280;6606;49.154;9.280;2023-02-11T03:00:59;101624.84;;;0.27;100.00
13080;BME280;6606;49.154;9.280;2023-02-11T03:03:47;101626.72;;;0.34;100.00
13080;BME280;6606;49.154;9.280;2023-02-11T03:06:46;101625.97;;;0.39;100.00
13080;BME280;6606;49.154;9.280;2023-02-11T03:09:31;101625.94;;;0.38;100.00
13080;BME280;6606;49.154;9.280;2023-02-11T03:12:17;101624.22;;;0.38;100.00
13080;BME280;6606;49.154;9.280;2023-02-11T03:15:01;101624.34;;;0.44;100.00
13080;BME280;6606;49.154;9.280;2023-02-11T03:17:45;101621.66;;;0.40;100.00
13080;BME280;6606;49.154;9.280;2023-02-11T03:20:29;101630.47;;;0.45;100.00
13080;BME280;6606;49.154;9.280;2023-02-11T03:23:18;101633.78;;;0.39;100.00
13080;BME280;6606;49.154;9.280;2023-02-11T03:26:04;101638.03;;;0.34;100.00
13080;BME280;6606;49.154;9.280;2023-02-11T03:28:50;101638.19;;;0.40;100.00
13080;BME280;6606;49.154;9.280;2023-02-11T03:31:39;101638.19;;;0.40;100.00
13080;BME280;6606;49.154;9.280;2023-02-11T03:34:26;101643.34;;;0.37;100.00
13080;BME280;6606;49.154;9.280;2023-02-11T03:37:13;101643.16;;;0.30;100.00
13080;BME280;6606;49.154;9.280;2023-02-11T03:40:00;101636.28;;;0.33;100.00
13080;BME280;6606;49.154;9.280;2023-02-11T03:42:47;101634.34;;;0.26;100.00
13080;BME280;6606;49.154;9.280;2023-02-11T03:45:30;101632.31;;;0.13;100.00
13080;BME280;6606;49.154;9.280;2023-02-11T03:48:14;101631.84;;;0.29;100.00
13080;BME280;6606;49.154;9.280;2023-02-11T03:50:59;101634.78;;;0.44;100.00
13080;BME280;6606;49.154;9.280;2023-02-11T03:53:44;101629.56;;;0.44;100.00
13080;BME280;6606;49.154;9.280;2023-02-11T03:56:32;101622.47;;;0.37;100.00
13080;BME280;6606;49.154;9.280;2023-02-11T03:59:17;101619.88;;;0.37;100.00
13080;BME280;6606;49.154;9.280;2023-02-11T04:01:59;101625.78;;;0.30;100.00
13080;BME280;6606;49.154;9.280;2023-02-11T04:04:41;101627.88;;;0.47;100.00
13080;BME280;6606;49.154;9.280;2023-02-11T04:07:22;101633.16;;;0.50;100.00
13080;BME280;6606;49.154;9.280;2023-02-11T04:10:05;101628.19;;;0.60;100.00
13080;BME280;6606;49.154;9.280;2023-02-11T04:12:48;101628.09;;;0.56;100.00
13080;BME280;6606;49.154;9.280;2023-02-11T04:15:30;101632.41;;;0.55;100.00
13080;BME280;6606;49.154;9.280;2023-02-11T04:18:12;101633.56;;;0.68;100.00
13080;BME280;6606;49.154;9.280;2023-02-11T04:20:54;101632.81;;;0.72;100.00
13080;BME280;6606;49.154;9.280;2023-02-11T04:23:35;101628.59;;;0.79;100.00
13080;BME280;6606;49.154;9.280;2023-02-11T04:26:17;101628.69;;;0.83;100.00
13080;BME280;6606;49.154;9.280;2023-02-11T04:29:00;101626.13;;;0.85;100.00
13080;BME280;6606;49.154;9.280;2023-02-11T04:31:42;101628.88;;;0.93;100.00
13080;BME280;6606;49.154;9.280;2023-02-11T04:34:23;101619.22;;;0.88;100.00
13080;BME280;6606;49.154;9.280;2023-02-11T04:37:05;101632.34;;;0.92;100.00
13080;BME280;6606;49.154;9.280;2023-02-11T04:39:47;101621.63;;;0.79;100.00
13080;BME280;6606;49.154;9.280;2023-02-11T04:42:29;101617.59;;;0.94;100.00
13080;BME280;6606;49.154;9.280;2023-02-11T04:45:12;101617.81;;;1.04;100.00
13080;BME280;6606;49.154;9.280;2023-02-11T04:47:54;101608.28;;;1.06;100.00
13080;BME280;6606;49.154;9.280;2023-02-11T04:50:35;101606.59;;;1.10;100.00
13080;BME280;6606;49.154;9.280;2023-02-11T04:53:17;101598.72;;;1.07;100.00
13080;BME280;6606;49.154;9.280;2023-02-11T04:55:59;101587.47;;;1.11;100.00
13080;BME280;6606;49.154;9.280;2023-02-11T04:58:40;101585.72;;;1.10;100.00
13080;BME280;6606;49.154;9.280;2023-02-11T05:01:23;101578.59;;;1.03;100.00
13080;BME280;6606;49.154;9.280;2023-02-11T05:04:05;101582.91;;;0.99;100.00
13080;BME280;6606;49.154;9.280;2023-02-11T05:06:47;101576.69;;;0.94;100.00
13080;BME280;6606;49.154;9.280;2023-02-11T05:09:29;101575.16;;;1.04;100.00
13080;BME280;6606;49.154;9.280;2023-02-11T05:12:10;101578.84;;;1.15;100.00
13080;BME280;6606;49.154;9.280;2023-02-11T05:14:52;101579.13;;;1.30;100.00
13080;BME280;6606;49.154;9.280;2023-02-11T05:17:35;101573.28;;;1.45;100.00
13080;BME280;6606;49.154;9.280;2023-02-11T05:20:17;101569.94;;;1.52;100.00
13080;BME280;6606;49.154;9.280;2023-02-11T05:22:59;101571.00;;;1.62;100.00
13080;BME280;6606;49.154;9.280;2023-02-11T05:25:40;101579.88;;;1.73;100.00
13080;BME280;6606;49.154;9.280;2023-02-11T05:28:22;101593.00;;;1.76;100.00
13080;BME280;6606;49.154;9.280;2023-02-11T05:31:04;101596.22;;;1.60;100.00
13080;BME280;6606;49.154;9.280;2023-02-11T05:33:47;101597.28;;;1.71;100.00
13080;BME280;6606;49.154;9.280;2023-02-11T05:36:29;101595.84;;;1.89;100.00
13080;BME280;6606;49.154;9.280;2023-02-11T05:39:11;101611.66;;;1.98;100.00
13080;BME280;6606;49.154;9.280;2023-02-11T05:41:52;101608.25;;;2.02;100.00
13080;BME280;6606;49.154;9.280;2023-02-11T05:44:34;101609.06;;;2.00;100.00
13080;BME280;6606;49.154;9.280;2023-02-11T05:47:16;101603.03;;;2.02;100.00
13080;BME280;6606;49.154;9.280;2023-02-11T05:49:59;101591.72;;;2.05;100.00
13080;BME280;6606;49.154;9.280;2023-02-11T05:52:41;101583.97;;;2.09;100.00
13080;BME280;6606;49.154;9.280;2023-02-11T05:55:22;101578.78;;;2.12;100.00
13080;BME280;6606;49.154;9.280;2023-02-11T05:58:05;101569.94;;;2.04;100.00
13080;BME280;6606;49.154;9.280;2023-02-11T06:00:47;101578.72;;;2.09;100.00
13080;BME280;6606;49.154;9.280;2023-02-11T06:03:28;101584.00;;;2.12;100.00
13080;BME280;6606;49.154;9.280;2023-02-11T06:06:12;101592.50;;;1.99;100.00
13080;BME280;6606;49.154;9.280;2023-02-11T06:08:53;101585.50;;;1.98;100.00
13080;BME280;6606;49.154;9.280;2023-02-11T06:11:35;101582.00;;;1.97;100.00
13080;BME280;6606;49.154;9.280;2023-02-11T06:14:17;101575.84;;;1.92;100.00
13080;BME280;6606;49.154;9.280;2023-02-11T06:16:59;101562.69;;;1.88;100.00
13080;BME280;6606;49.154;9.280;2023-02-11T06:19:41;101561.75;;;1.84;100.00
13080;BME280;6606;49.154;9.280;2023-02-11T06:22:24;101568.03;;;1.94;100.00
13080;BME280;6606;49.154;9.280;2023-02-11T06:25:05;101581.88;;;1.90;100.00
13080;BME280;6606;49.154;9.280;2023-02-11T06:27:47;101588.13;;;1.98;100.00
13080;BME280;6606;49.154;9.280;2023-02-11T06:30:29;101587.38;;;2.05;100.00
13080;BME280;6606;49.154;9.280;2023-02-11T06:33:11;101584.50;;;1.90;100.00
13080;BME280;6606;49.154;9.280;2023-02-11T06:35:52;101587.00;;;1.81;100.00
13080;BME280;6606;49.154;9.280;2023-02-11T06:38:36;101585.47;;;1.93;100.00
13080;BME280;6606;49.154;9.280;2023-02-11T06:41:18;101570.66;;;1.95;100.00
13080;BME280;6606;49.154;9.280;2023-02-11T06:44:00;101575.03;;;1.96;100.00
13080;BME280;6606;49.154;9.280;2023-02-11T06:46:42;101576.78;;;1.96;100.00
13080;BME280;6606;49.154;9.280;2023-02-11T06:49:23;101576.06;;;2.08;100.00
13080;BME280;6606;49.154;9.280;2023-02-11T06:52:05;101580.59;;;2.19;100.00
13080;BME280;6606;49.154;9.280;2023-02-11T06:54:48;101567.72;;;2.30;100.00
13080;BME280;6606;49.154;9.280;2023-02-11T06:57:30;101575.63;;;2.38;100.00
13080;BME280;6606;49.154;9.280;2023-02-11T07:00:13;101577.53;;;2.48;100.00
13080;BME280;6606;49.154;9.280;2023-02-11T07:02:55;101566.19;;;2.48;100.00
13080;BME280;6606;49.154;9.280;2023-02-11T07:05:36;101574.91;;;2.48;100.00
13080;BME280;6606;49.154;9.280;2023-02-11T07:08:18;101589.78;;;2.49;100.00
13080;BME280;6606;49.154;9.280;2023-02-11T07:11:08;101595.16;;;2.61;100.00
13080;BME280;6606;49.154;9.280;2023-02-11T07:13:50;101593.38;;;2.57;100.00
13080;BME280;6606;49.154;9.280;2023-02-11T07:16:33;101590.06;;;2.71;100.00
13080;BME280;6606;49.154;9.280;2023-02-11T07:19:15;101581.34;;;2.75;100.00
13080;BME280;6606;49.154;9.280;2023-02-11T07:21:56;101586.75;;;2.87;100.00
13080;BME280;6606;49.154;9.280;2023-02-11T07:24:38;101579.00;;;2.95;100.00
13080;BME280;6606;49.154;9.280;2023-02-11T07:27:21;101583.47;;;3.03;100.00
13080;BME280;6606;49.154;9.280;2023-02-11T07:30:03;101576.56;;;3.12;100.00
13080;BME280;6606;49.154;9.280;2023-02-11T07:32:45;101564.47;;;3.23;100.00
13080;BME280;6606;49.154;9.280;2023-02-11T07:35:27;101554.94;;;3.31;100.00
13080;BME280;6606;49.154;9.280;2023-02-11T07:38:09;101561.25;;;3.55;100.00
13080;BME280;6606;49.154;9.280;2023-02-11T07:40:50;101559.59;;;3.63;100.00
13080;BME280;6606;49.154;9.280;2023-02-11T07:43:34;101567.59;;;3.78;100.00
13080;BME280;6606;49.154;9.280;2023-02-11T07:46:19;101555.41;;;3.86;100.00
13080;BME280;6606;49.154;9.280;2023-02-11T07:49:01;101566.75;;;3.79;100.00
13080;BME280;6606;49.154;9.280;2023-02-11T07:51:43;101563.34;;;3.95;100.00
13080;BME280;6606;49.154;9.280;2023-02-11T07:54:25;101580.97;;;4.15;100.00
13080;BME280;6606;49.154;9.280;2023-02-11T07:57:06;101584.53;;;4.23;100.00
13080;BME280;6606;49.154;9.280;2023-02-11T07:59:49;101591.66;;;4.39;100.00
13080;BME280;6606;49.154;9.280;2023-02-11T08:02:31;101593.44;;;4.50;100.00
13080;BME280;6606;49.154;9.280;2023-02-11T08:05:13;101589.19;;;4.73;100.00
13080;BME280;6606;49.154;9.280;2023-02-11T08:07:54;101591.91;;;4.92;100.00
13080;BME280;6606;49.154;9.280;2023-02-11T08:10:36;101585.81;;;4.99;100.00
13080;BME280;6606;49.154;9.280;2023-02-11T08:13:18;101577.03;;;5.00;100.00
13080;BME280;6606;49.154;9.280;2023-02-11T08:16:01;101575.22;;;4.77;100.00
13080;BME280;6606;49.154;9.280;2023-02-11T08:18:43;101577.88;;;4.88;100.00
13080;BME280;6606;49.154;9.280;2023-02-11T08:21:25;101577.81;;;4.71;100.00
13080;BME280;6606;49.154;9.280;2023-02-11T08:24:07;101576.13;;;4.95;100.00
13080;BME280;6606;49.154;9.280;2023-02-11T08:26:49;101576.19;;;4.98;100.00
13080;BME280;6606;49.154;9.280;2023-02-11T08:29:31;101577.84;;;4.77;100.00
13080;BME280;6606;49.154;9.280;2023-02-11T08:32:14;101576.97;;;4.81;100.00
13080;BME280;6606;49.154;9.280;2023-02-11T08:34:55;101576.97;;;4.80;100.00
13080;BME280;6606;49.154;9.280;2023-02-11T08:37:37;101572.59;;;4.77;100.00
13080;BME280;6606;49.154;9.280;2023-02-11T08:40:19;101567.31;;;4.74;100.00
13080;BME280;6606;49.154;9.280;2023-02-11T08:43:01;101565.53;;;4.67;100.00
13080;BME280;6606;49.154;9.280;2023-02-11T08:45:43;101566.41;;;4.66;100.00
13080;BME280;6606;49.154;9.280;2023-02-11T08:48:27;101573.47;;;4.78;100.00
13080;BME280;6606;49.154;9.280;2023-02-11T08:51:12;101583.19;;;5.05;100.00
13080;BME280;6606;49.154;9.280;2023-02-11T08:53:54;101578.72;;;4.79;100.00
13080;BME280;6606;49.154;9.280;2023-02-11T08:56:37;101578.88;;;5.24;100.00
13080;BME280;6606;49.154;9.280;2023-02-11T08:59:19;101590.28;;;5.24;100.00
13080;BME280;6606;49.154;9.280;2023-02-11T09:02:00;101580.66;;;5.46;100.00
13080;BME280;6606;49.154;9.280;2023-02-11T09:04:44;101585.00;;;5.14;100.00
13080;BME280;6606;49.154;9.280;2023-02-11T09:07:26;101586.69;;;5.01;100.00
13080;BME280;6606;49.154;9.280;2023-02-11T09:10:08;101587.66;;;5.40;100.00
13080;BME280;6606;49.154;9.280;2023-02-11T09:12:50;101595.63;;;5.80;100.00
13080;BME280;6606;49.154;9.280;2023-02-11T09:15:32;101578.97;;;6.02;100.00
13080;BME280;6606;49.154;9.280;2023-02-11T09:18:14;101585.97;;;6.11;100.00
13080;BME280;6606;49.154;9.280;2023-02-11T09:21:02;101592.06;;;6.42;100.00
13080;BME280;6606;49.154;9.280;2023-02-11T09:23:44;101577.97;;;6.68;100.00
13080;BME280;6606;49.154;9.280;2023-02-11T09:26:29;101570.97;;;6.57;100.00
13080;BME280;6606;49.154;9.280;2023-02-11T09:29:11;101584.97;;;6.72;100.00
13080;BME280;6606;49.154;9.280;2023-02-11T09:31:53;101583.06;;;7.06;100.00
13080;BME280;6606;49.154;9.280;2023-02-11T09:34:34;101585.69;;;7.11;100.00
13080;BME280;6606;49.154;9.280;2023-02-11T09:37:18;101584.84;;;7.02;100.00
13080;BME280;6606;49.154;9.280;2023-02-11T09:39:59;101591.06;;;6.85;100.00
13080;BME280;6606;49.154;9.280;2023-02-11T09:42:47;101583.88;;;7.19;100.00
13080;BME280;6606;49.154;9.280;2023-02-11T09:45:32;101583.88;;;7.20;100.00
13080;BME280;6606;49.154;9.280;2023-02-11T09:48:16;101590.13;;;7.02;100.00
13080;BME280;6606;49.154;9.280;2023-02-11T09:51:03;101594.44;;;7.14;100.00
13080;BME280;6606;49.154;9.280;2023-02-11T09:53:56;101594.34;;;7.34;100.00
13080;BME280;6606;49.154;9.280;2023-02-11T09:56:41;101595.31;;;7.16;100.00
13080;BME280;6606;49.154;9.280;2023-02-11T09:59:22;101591.69;;;7.33;100.00
13080;BME280;6606;49.154;9.280;2023-02-11T10:02:11;101584.63;;;7.42;100.00
13080;BME280;6606;49.154;9.280;2023-02-11T10:05:21;101587.53;;;6.93;100.00
13080;BME280;6606;49.154;9.280;2023-02-11T10:08:09;101596.09;;;7.32;100.00
13080;BME280;6606;49.154;9.280;2023-02-11T10:10:59;101600.66;;;7.04;100.00
13080;BME280;6606;49.154;9.280;2023-02-11T10:13:48;101595.31;;;7.12;100.00
13080;BME280;6606;49.154;9.280;2023-02-11T10:16:47;101593.66;;;7.01;100.00
13080;BME280;6606;49.154;9.280;2023-02-11T10:19:52;101592.75;;;7.02;100.00
13080;BME280;6606;49.154;9.280;2023-02-11T10:22:40;101583.06;;;7.03;100.00
13080;BME280;6606;49.154;9.280;2023-02-11T10:25:25;101591.91;;;6.97;100.00
13080;BME280;6606;49.154;9.280;2023-02-11T10:28:13;101586.53;;;7.16;100.00
13080;BME280;6606;49.154;9.280;2023-02-11T10:30:57;101586.56;;;7.10;100.00
13080;BME280;6606;49.154;9.280;2023-02-11T10:33:43;101589.06;;;7.33;100.00
13080;BME280;6606;49.154;9.280;2023-02-11T10:36:28;101582.66;;;7.69;100.00
13080;BME280;6606;49.154;9.280;2023-02-11T10:39:12;101575.81;;;7.46;100.00
13080;BME280;6606;49.154;9.280;2023-02-11T10:41:58;101573.69;;;7.95;100.00
13080;BME280;6606;49.154;9.280;2023-02-11T10:44:52;101576.88;;;8.29;100.00
13080;BME280;6606;49.154;9.280;2023-02-11T10:47:36;101579.41;;;8.43;100.00
13080;BME280;6606;49.154;9.280;2023-02-11T10:50:23;101586.47;;;8.37;100.00
13080;BME280;6606;49.154;9.280;2023-02-11T10:53:15;101585.59;;;8.35;100.00
13080;BME280;6606;49.154;9.280;2023-02-11T10:56:00;101578.03;;;8.00;100.00
13080;BME280;6606;49.154;9.280;2023-02-11T10:58:45;101578.16;;;7.85;100.00
13080;BME280;6606;49.154;9.280;2023-02-11T11:01:44;101568.66;;;7.61;100.00
13080;BME280;6606;49.154;9.280;2023-02-11T11:04:34;101572.34;;;7.35;100.00
13080;BME280;6606;49.154;9.280;2023-02-11T11:07:19;101567.94;;;7.39;100.00
13080;BME280;6606;49.154;9.280;2023-02-11T11:10:04;101560.09;;;7.28;100.00
13080;BME280;6606;49.154;9.280;2023-02-11T11:12:47;101568.72;;;7.48;100.00
13080;BME280;6606;49.154;9.280;2023-02-11T11:15:30;101572.31;;;7.41;100.00
13080;BME280;6606;49.154;9.280;2023-02-11T11:18:15;101566.91;;;7.57;100.00
13080;BME280;6606;49.154;9.280;2023-02-11T11:20:59;101554.38;;;7.86;100.00
13080;BME280;6606;49.154;9.280;2023-02-11T11:23:47;101547.97;;;8.12;100.00
13080;BME280;6606;49.154;9.280;2023-02-11T11:26:39;101547.84;;;8.26;100.00
13080;BME280;6606;49.154;9.280;2023-02-11T11:29:23;101547.19;;;8.01;100.00
13080;BME280;6606;49.154;9.280;2023-02-11T11:32:12;101559.50;;;8.03;100.00
13080;BME280;6606;49.154;9.280;2023-02-11T11:34:59;101568.22;;;8.11;100.00
13080;BME280;6606;49.154;9.280;2023-02-11T11:37:42;101573.81;;;7.76;100.00
13080;BME280;6606;49.154;9.280;2023-02-11T11:40:28;101568.28;;;8.04;100.00
13080;BME280;6606;49.154;9.280;2023-02-11T11:43:17;101577.25;;;7.87;100.00
13080;BME280;6606;49.154;9.280;2023-02-11T11:46:00;101573.66;;;7.98;100.00
13080;BME280;6606;49.154;9.280;2023-02-11T11:48:46;101577.25;;;7.89;100.00
13080;BME280;6606;49.154;9.280;2023-02-11T11:51:33;101566.63;;;7.97;100.00
13080;BME280;6606;49.154;9.280;2023-02-11T11:54:17;101576.41;;;7.82;100.00
13080;BME280;6606;49.154;9.280;2023-02-11T11:57:03;101575.56;;;7.77;100.00
13080;BME280;6606;49.154;9.280;2023-02-11T11:59:50;101572.03;;;7.81;100.00
13080;BME280;6606;49.154;9.280;2023-02-11T12:02:53;101571.72;;;8.15;100.00
13080;BME280;6606;49.154;9.280;2023-02-11T12:05:42;101576.84;;;8.32;100.00
13080;BME280;6606;49.154;9.280;2023-02-11T12:08:38;101577.03;;;8.12;100.00
13080;BME280;6606;49.154;9.280;2023-02-11T12:11:25;101565.69;;;8.02;100.00
13080;BME280;6606;49.154;9.280;2023-02-11T12:14:22;101559.72;;;7.79;100.00
13080;BME280;6606;49.154;9.280;2023-02-11T12:17:16;101567.72;;;7.71;100.00
13080;BME280;6606;49.154;9.280;2023-02-11T12:20:15;101565.13;;;7.65;100.00
13080;BME280;6606;49.154;9.280;2023-02-11T12:23:13;101562.19;;;7.99;100.00
13080;BME280;6606;49.154;9.280;2023-02-11T12:26:07;101569.69;;;8.38;100.00
13080;BME280;6606;49.154;9.280;2023-02-11T12:29:03;101557.16;;;8.62;100.00
13080;BME280;6606;49.154;9.280;2023-02-11T12:31:59;101550.38;;;9.09;100.00
13080;BME280;6606;49.154;9.280;2023-02-11T12:35:06;101554.38;;;9.38;100.00
13080;BME280;6606;49.154;9.280;2023-02-11T12:38:09;101548.47;;;9.78;100.00
13080;BME280;6606;49.154;9.280;2023-02-11T12:41:11;101545.28;;;9.56;100.00
13080;BME280;6606;49.154;9.280;2023-02-11T12:43:55;101544.06;;;9.77;100.00
13080;BME280;6606;49.154;9.280;2023-02-11T12:46:41;101535.19;;;9.79;100.00
13080;BME280;6606;49.154;9.280;2023-02-11T12:49:47;101535.28;;;9.75;100.00
13080;BME280;6606;49.154;9.280;2023-02-11T12:52:40;101535.91;;;9.89;100.00
13080;BME280;6606;49.154;9.280;2023-02-11T12:55:29;101524.25;;;9.99;100.00
13080;BME280;6606;49.154;9.280;2023-02-11T12:58:20;101527.22;;;10.32;100.00
13080;BME280;6606;49.154;9.280;2023-02-11T13:01:07;101522.56;;;9.94;100.00
13080;BME280;6606;49.154;9.280;2023-02-11T13:03:53;101519.84;;;9.98;100.00
13080;BME280;6606;49.154;9.280;2023-02-11T13:06:39;101525.16;;;9.45;100.00
13080;BME280;6606;49.154;9.280;2023-02-11T13:09:26;101515.31;;;9.55;100.00
13080;BME280;6606;49.154;9.280;2023-02-11T13:12:12;101505.63;;;9.53;100.00
13080;BME280;6606;49.154;9.280;2023-02-11T13:15:14;101507.13;;;9.69;100.00
13080;BME280;6606;49.154;9.280;2023-02-11T13:18:00;101496.84;;;9.49;100.00
13080;BME280;6606;49.154;9.280;2023-02-11T13:20:50;101498.69;;;9.44;100.00
13080;BME280;6606;49.154;9.280;2023-02-11T13:23:38;101499.56;;;9.46;100.00
13080;BME280;6606;49.154;9.280;2023-02-11T13:26:25;101501.69;;;9.22;100.00
13080;BME280;6606;49.154;9.280;2023-02-11T13:29:17;101498.78;;;9.39;100.00
13080;BME280;6606;49.154;9.280;2023-02-11T13:32:08;101488.50;;;9.21;100.00
13080;BME280;6606;49.154;9.280;2023-02-11T13:34:57;101484.47;;;9.53;100.00
13080;BME280;6606;49.154;9.280;2023-02-11T13:37:46;101483.38;;;9.64;100.00
13080;BME280;6606;49.154;9.280;2023-02-11T13:40:31;101487.06;;;9.56;100.00
13080;BME280;6606;49.154;9.280;2023-02-11T13:43:20;101486.69;;;9.76;100.00
13080;BME280;6606;49.154;9.280;2023-02-11T13:46:04;101499.50;;;9.49;100.00
13080;BME280;6606;49.154;9.280;2023-02-11T13:48:49;101497.91;;;9.39;100.00
13080;BME280;6606;49.154;9.280;2023-02-11T13:51:34;101505.59;;;9.56;100.00
13080;BME280;6606;49.154;9.280;2023-02-11T13:54:21;101511.19;;;9.87;100.00
13080;BME280;6606;49.154;9.280;2023-02-11T14:00:47;101501.84;;;10.16;100.00
13080;BME280;6606;49.154;9.280;2023-02-11T14:03:31;101503.09;;;9.96;100.00
13080;BME280;6606;49.154;9.280;2023-02-11T14:06:32;101511.06;;;9.96;100.00
13080;BME280;6606;49.154;9.280;2023-02-11T14:09:39;101508.28;;;10.02;100.00
13080;BME280;6606;49.154;9.280;2023-02-11T14:12:31;101499.31;;;10.09;100.00
13080;BME280;6606;49.154;9.280;2023-02-11T14:15:38;101503.38;;;10.30;100.00
13080;BME280;6606;49.154;9.280;2023-02-11T14:21:39;101512.63;;;10.06;100.00
13080;BME280;6606;49.154;9.280;2023-02-11T14:24:45;101509.53;;;9.81;100.00
13080;BME280;6606;49.154;9.280;2023-02-11T14:27:41;101509.47;;;9.86;100.00
13080;BME280;6606;49.154;9.280;2023-02-11T14:30:41;101502.28;;;10.41;100.00
13080;BME280;6606;49.154;9.280;2023-02-11T14:33:45;101504.66;;;10.54;100.00
13080;BME280;6606;49.154;9.280;2023-02-11T14:36:42;101501.16;;;10.52;99.38
13080;BME280;6606;49.154;9.280;2023-02-11T14:39:36;101502.47;;;10.31;100.00
13080;BME280;6606;49.154;9.280;2023-02-11T14:42:25;101503.97;;;9.98;100.00
13080;BME280;6606;49.154;9.280;2023-02-11T14:45:09;101495.56;;;10.21;100.00